Weather observations for the past three days for
San Juan Fernando Luis Ribas Dominicci
Imperial (Metric)
Date Time (ast) Wind (mph) Vis. (mi.) Weather Sky Cond. Temperature (ºF) Relative Humidity Wind Chill (°F) Heat Index (°F) Pressure Precipitation (in)
Air Dwpt 6 hour altimeter (in) sea level (mb) 1 hr 3 hr 6 hr
Max. Min.
05 08:50 E 9 10.00 Partly Cloudy SCT030 SCT060 87.8 77 70% 100 29.97 0.0
05 07:50 SE 3 10.00 Partly Cloudy SCT050 84.2 77 79% 94 29.97 0.0
05 06:50 SE 5 10.00 Partly Cloudy SCT050 82.4 75.2 79% 89 29.95 0.0
04 18:45 E 12 10.00 Partly Cloudy SCT030 SCT070 86 77 75% 97 29.94 0.0
04 17:45 E 16 10.00 Partly Cloudy SCT030 SCT070 87.8 78.8 75% 102 29.94 0.0
04 16:45 E 16 10.00 Mostly Cloudy SCT030 BKN070 87.8 78.8 75% 102 29.92 0.0
04 15:45 E 16 10.00 Mostly Cloudy SCT030 BKN070 87.8 78.8 75% 102 29.93 0.0
04 14:45 E 16 10.00 Mostly Cloudy SCT030 BKN070 87.8 78.8 75% 102 29.93 0.0
04 13:45 E 16 10.00 Mostly Cloudy SCT030 BKN070 89.6 77 67% 103 29.96 0.0
04 12:45 E 13 10.00 Mostly Cloudy SCT030 BKN080 87.8 77 70% 100 29.97 0.0
04 11:45 E 13 10.00 Mostly Cloudy SCT030 BKN080 87.8 77 70% 100 30 0.0
04 10:45 E 9 10.00 Mostly Cloudy SCT030 BKN080 86 77 75% 97 30.02 0.0
04 09:45 E 7 10.00 Mostly Cloudy SCT030 BKN080 86 75.2 70% 95 30.02 0.0
04 08:45 E 6 10.00 Partly Cloudy SCT030 SCT080 84.2 75.2 74% 92 30.01 0.0
04 07:50 Calm 10.00 Partly Cloudy SCT030 SCT080 82.4 73.4 74% 88 30 0.0
04 06:55 Calm 10.00 Partly Cloudy SCT030 SCT090 80.6 73.4 79% 85 29.99 0.0
03 18:45 E 14 10.00 Partly Cloudy SCT030 SCT070 84.2 75.2 74% 92 29.96 0.0
03 17:45 E 13 10.00 Partly Cloudy SCT030 SCT070 86 75.2 70% 95 29.95 0.0
03 16:45 E 13 10.00 Partly Cloudy SCT050 87.8 75.2 66% 98 29.94 0.0
03 15:45 E 13 10.00 Partly Cloudy SCT050 87.8 75.2 66% 98 29.94 0.0
03 14:45 E 13 10.00 Partly Cloudy SCT050 87.8 75.2 66% 98 29.95 0.0
03 13:45 E 13 10.00 Partly Cloudy SCT050 87.8 75.2 66% 98 29.96 0.0
03 12:45 E 14 10.00 Partly Cloudy SCT050 87.8 75.2 66% 98 29.98 0.0
03 11:45 E 14 10.00 Partly Cloudy SCT030 SCT065 87.8 73.4 62% 96 30 0.0
03 10:45 E 14 10.00 Partly Cloudy SCT030 SCT065 87.8 75.2 66% 98 30.01 0.0
03 09:45 E 9 10.00 Partly Cloudy SCT030 SCT065 87.8 73.4 62% 96 30.01 0.0
03 08:45 SE 6 10.00 Partly Cloudy SCT030 SCT065 84.2 75.2 74% 92 29.99 0.0
03 07:45 Calm 10.00 Partly Cloudy SCT030 SCT065 82.4 75.2 79% 89 29.99 0.0
03 06:55 Vrbl 3 10.00 Partly Cloudy SCT030 SCT065 80.6 75.2 84% 86 29.99 0.0
02 18:45 E 12 10.00 Partly Cloudy SCT030 SCT070 84.2 75.2 74% 92 29.96 0.0
02 17:45 E 14 10.00 Partly Cloudy SCT030 SCT070 86 77 75% 97 29.96 0.0
02 16:45 E 12 10.00 Partly Cloudy SCT030 SCT070 87.8 78.8 75% 102 29.97 0.0
02 15:45 E 12 10.00 Partly Cloudy SCT030 SCT070 87.8 77 70% 100 29.97 0.0
02 14:45 E 13 10.00 Mostly Cloudy SCT030 BKN070 87.8 75.2 66% 98 29.98 0.0
02 13:45 E 12 10.00 Mostly Cloudy SCT030 BKN070 87.8 77 70% 100 29.98 0.0
02 12:45 E 12 10.00 Mostly Cloudy SCT030 BKN070 87.8 77 70% 100 30.01 0.0
02 11:45 E 12 10.00 Mostly Cloudy SCT030 BKN070 87.8 75.2 66% 98 30.02 0.0
02 10:45 E 12 10.00 Mostly Cloudy SCT030 BKN070 84.2 77 79% 94 30.04 0.0
02 09:45 E 12 10.00 Mostly Cloudy SCT030 BKN070 84.2 77 79% 94 30.05 0.0
Date Time (ast) Wind (mph) Vis. (mi.) Weather Sky Cond. Air Dwpt Max. Min. Relative Humidity Wind Chill (°F) Heat Index (°F) altimeter (in) sea level (mb) 1 hr 3 hr 6 hr
6 hour
Temperature (ºF) Pressure Precipitation (in)